Time,TemperatureF,DewpointF,PressureIn,WindDirection,WindDirectionDegrees,WindSpeedMPH,WindSpeedGustMPH,Humidity,HourlyPrecipIn,Conditions,Clouds,dailyrainin,SoftwareType,DateUTC
2013-01-17 00:04:00,65.0,62.0,30.04,WSW,248,0.0,0.0,90,0.00,,,0.00,,2013-01-17 05:04:00,
2013-01-17 00:12:00,65.0,62.0,30.04,WSW,248,0.0,0.0,90,0.00,,,0.00,,2013-01-17 05:12:00,
2013-01-17 00:22:00,65.0,62.0,30.05,WSW,248,0.0,0.0,90,0.00,,,0.00,,2013-01-17 05:22:00,
2013-01-17 00:33:00,65.0,62.0,30.04,WSW,248,0.0,0.0,90,0.00,,,0.00,,2013-01-17 05:33:00,
2013-01-17 00:42:00,65.0,62.0,30.04,WSW,248,0.0,0.0,90,0.00,,,0.00,,2013-01-17 05:42:00,
2013-01-17 00:53:00,64.0,61.0,30.05,WSW,248,0.0,0.0,91,0.00,,,0.00,,2013-01-17 05:53:00,
2013-01-17 01:02:00,64.0,61.0,30.05,WSW,248,0.0,0.0,91,0.00,,,0.00,,2013-01-17 06:02:00,
2013-01-17 01:12:00,64.0,61.0,30.05,WSW,248,0.0,0.0,91,0.00,,,0.00,,2013-01-17 06:12:00,
2013-01-17 01:22:00,64.0,61.0,30.05,WSW,248,0.0,0.0,91,0.00,,,0.00,,2013-01-17 06:22:00,
2013-01-17 01:32:00,64.0,61.0,30.05,WSW,248,0.0,0.0,91,0.00,,,0.00,,2013-01-17 06:32:00,
2013-01-17 01:42:00,64.0,61.0,30.05,WSW,248,0.0,0.0,91,0.00,,,0.00,,2013-01-17 06:42:00,
2013-01-17 01:53:00,63.0,60.0,30.05,WSW,248,0.0,0.0,91,0.00,,,0.00,,2013-01-17 06:53:00,
2013-01-17 02:02:00,63.0,61.0,30.05,WSW,248,0.0,0.0,92,0.00,,,0.00,,2013-01-17 07:02:00,
2013-01-17 02:12:00,63.0,61.0,30.05,WSW,248,0.0,0.0,92,0.00,,,0.00,,2013-01-17 07:12:00,
2013-01-17 02:22:00,63.0,61.0,30.05,WSW,248,0.0,0.0,92,0.00,,,0.00,,2013-01-17 07:22:00,
2013-01-17 02:33:00,63.0,61.0,30.05,WSW,248,0.0,0.0,92,0.00,,,0.00,,2013-01-17 07:33:00,
2013-01-17 02:42:00,63.0,61.0,30.05,WSW,248,0.0,0.0,92,0.00,,,0.00,,2013-01-17 07:42:00,
2013-01-17 02:53:00,62.0,60.0,30.04,WSW,248,0.0,0.0,92,0.00,,,0.00,,2013-01-17 07:53:00,
2013-01-17 03:02:00,62.0,60.0,30.04,WSW,248,0.0,0.0,92,0.00,,,0.00,,2013-01-17 08:02:00,
2013-01-17 03:12:00,62.0,60.0,30.04,WSW,248,0.0,0.0,92,0.00,,,0.00,,2013-01-17 08:12:00,
2013-01-17 03:22:00,62.0,60.0,30.04,WSW,248,0.0,0.0,92,0.00,,,0.00,,2013-01-17 08:22:00,
2013-01-17 03:32:00,62.0,60.0,30.03,WSW,248,0.0,0.0,92,0.00,,,0.00,,2013-01-17 08:32:00,
2013-01-17 03:43:00,62.0,60.0,30.03,WSW,248,0.0,0.0,92,0.00,,,0.00,,2013-01-17 08:43:00,
2013-01-17 03:53:00,61.0,59.0,30.03,WSW,248,0.0,0.0,92,0.00,,,0.00,,2013-01-17 08:53:00,
2013-01-17 04:02:00,61.0,59.0,30.03,WSW,248,0.0,0.0,92,0.00,,,0.00,,2013-01-17 09:02:00,
2013-01-17 04:12:00,61.0,59.0,30.03,WSW,248,0.0,0.0,92,0.00,,,0.00,,2013-01-17 09:12:00,
2013-01-17 04:22:00,61.0,59.0,30.03,WSW,248,0.0,0.0,92,0.00,,,0.00,,2013-01-17 09:22:00,
2013-01-17 04:32:00,61.0,59.0,30.03,WSW,248,0.0,0.0,92,0.00,,,0.00,,2013-01-17 09:32:00,
2013-01-17 04:42:00,61.0,59.0,30.03,WSW,248,0.0,0.0,92,0.00,,,0.00,,2013-01-17 09:42:00,
2013-01-17 04:53:00,60.0,58.0,30.03,WSW,248,0.0,0.0,92,0.00,,,0.00,,2013-01-17 09:53:00,
2013-01-17 05:02:00,60.0,58.0,30.03,WSW,248,0.0,0.0,92,0.00,,,0.00,,2013-01-17 10:02:00,
2013-01-17 05:12:00,60.0,58.0,30.03,WSW,248,0.0,0.0,92,0.00,,,0.00,,2013-01-17 10:12:00,
2013-01-17 05:22:00,60.0,58.0,30.03,WSW,248,0.0,0.0,92,0.00,,,0.00,,2013-01-17 10:22:00,
2013-01-17 05:32:00,60.0,58.0,30.03,WSW,248,0.0,0.0,92,0.00,,,0.00,,2013-01-17 10:32:00,
2013-01-17 05:42:00,60.0,58.0,30.03,WSW,248,0.0,0.0,92,0.00,,,0.00,,2013-01-17 10:42:00,
2013-01-17 05:53:00,59.0,57.0,30.02,WSW,248,0.0,0.0,92,0.00,,,0.00,,2013-01-17 10:53:00,
2013-01-17 06:02:00,59.0,57.0,30.02,WSW,248,0.0,0.0,93,0.00,,,0.00,,2013-01-17 11:02:00,
2013-01-17 06:12:00,59.0,57.0,30.02,WSW,248,0.0,0.0,93,0.00,,,0.00,,2013-01-17 11:12:00,
2013-01-17 06:22:00,59.0,57.0,30.02,WSW,248,0.0,0.0,93,0.00,,,0.00,,2013-01-17 11:22:00,
2013-01-17 06:33:00,59.0,57.0,30.03,WSW,248,0.0,0.0,93,0.00,,,0.00,,2013-01-17 11:33:00,
2013-01-17 06:43:00,59.0,57.0,30.03,WSW,248,0.0,0.0,93,0.00,,,0.00,,2013-01-17 11:43:00,
2013-01-17 06:53:00,59.0,57.0,30.03,WSW,248,0.0,0.0,94,0.00,,,0.00,,2013-01-17 11:53:00,
2013-01-17 07:02:00,59.0,57.0,30.03,WSW,248,0.0,0.0,93,0.00,,,0.00,,2013-01-17 12:02:00,
2013-01-17 07:12:00,59.0,57.0,30.03,WSW,248,0.0,0.0,93,0.00,,,0.00,,2013-01-17 12:12:00,
2013-01-17 07:23:00,59.0,57.0,30.03,WSW,248,0.0,0.0,94,0.00,,,0.00,,2013-01-17 12:23:00,
2013-01-17 07:33:00,59.0,57.0,30.03,WSW,248,0.0,1.0,94,0.00,,,0.00,,2013-01-17 12:33:00,
2013-01-17 07:43:00,59.0,57.0,30.03,WSW,248,0.0,1.0,94,0.00,,,0.00,,2013-01-17 12:43:00,
2013-01-17 07:53:00,59.0,57.0,30.03,WSW,248,0.0,0.0,94,0.00,,,0.00,,2013-01-17 12:53:00,
2013-01-17 08:03:00,60.0,58.0,30.04,WSW,248,0.0,0.0,94,0.00,,,0.00,,2013-01-17 13:03:00,
2013-01-17 08:12:00,60.0,58.0,30.04,WSW,248,0.0,0.0,94,0.00,,,0.00,,2013-01-17 13:12:00,
2013-01-17 08:23:00,60.0,58.0,30.04,WSW,248,0.0,2.0,94,0.00,,,0.00,,2013-01-17 13:23:00,
2013-01-17 08:33:00,61.0,60.0,30.04,WSW,248,0.0,3.0,95,0.00,,,0.00,,2013-01-17 13:33:00,
2013-01-17 08:43:00,61.0,60.0,30.04,WSW,248,0.0,3.0,95,0.00,,,0.00,,2013-01-17 13:43:00,
2013-01-17 08:53:00,63.0,62.0,30.05,SSW,200,0.0,4.0,95,0.00,,,0.00,,2013-01-17 13:53:00,
2013-01-17 09:03:00,64.0,63.0,30.05,SSW,198,0.0,2.0,95,0.00,,,0.00,,2013-01-17 14:03:00,
2013-01-17 09:12:00,64.0,63.0,30.05,SSW,198,0.0,2.0,95,0.00,,,0.00,,2013-01-17 14:12:00,
2013-01-17 09:23:00,65.0,64.0,30.05,South,180,2.0,5.0,95,0.00,,,0.00,,2013-01-17 14:23:00,
2013-01-17 09:33:00,66.0,65.0,30.06,SW,232,0.0,9.0,95,0.00,,,0.00,,2013-01-17 14:33:00,
2013-01-17 09:43:00,66.0,65.0,30.06,SW,232,0.0,9.0,95,0.00,,,0.00,,2013-01-17 14:43:00,
2013-01-17 09:53:00,67.0,66.0,30.06,South,186,0.0,9.0,95,0.00,,,0.00,,2013-01-17 14:53:00,
2013-01-17 10:03:00,68.0,66.0,30.05,South,172,3.0,6.0,92,0.00,,,0.00,,2013-01-17 15:03:00,
2013-01-17 10:12:00,68.0,66.0,30.05,South,172,3.0,6.0,92,0.00,,,0.00,,2013-01-17 15:12:00,
2013-01-17 10:23:00,70.0,67.0,30.05,West,264,1.0,5.0,89,0.00,,,0.00,,2013-01-17 15:23:00,
2013-01-17 10:33:00,71.0,67.0,30.05,South,180,4.0,7.0,87,0.00,,,0.00,,2013-01-17 15:33:00,
2013-01-17 10:43:00,71.0,67.0,30.05,South,180,4.0,7.0,87,0.00,,,0.00,,2013-01-17 15:43:00,
2013-01-17 10:53:00,73.0,67.0,30.04,SSW,196,4.0,16.0,82,0.00,,,0.00,,2013-01-17 15:53:00,
2013-01-17 11:03:00,74.0,67.0,30.03,South,180,2.0,11.0,78,0.00,,,0.00,,2013-01-17 16:03:00,
2013-01-17 11:12:00,74.0,67.0,30.03,South,180,2.0,11.0,78,0.00,,,0.00,,2013-01-17 16:12:00,
2013-01-17 11:23:00,76.0,67.0,30.03,WNW,289,3.0,10.0,74,0.00,,,0.00,,2013-01-17 16:23:00,
2013-01-17 11:33:00,77.0,67.0,30.02,WNW,291,4.0,10.0,71,0.00,,,0.00,,2013-01-17 16:33:00,
2013-01-17 11:43:00,77.0,67.0,30.02,WNW,291,4.0,10.0,71,0.00,,,0.00,,2013-01-17 16:43:00,
2013-01-17 11:53:00,78.0,67.0,30.01,WSW,246,2.0,13.0,69,0.00,,,0.00,,2013-01-17 16:53:00,
2013-01-17 12:03:00,77.0,66.0,30.01,SW,221,4.0,12.0,68,0.00,,,0.00,,2013-01-17 17:03:00,
2013-01-17 12:13:00,77.0,66.0,30.01,SW,221,4.0,12.0,68,0.00,,,0.00,,2013-01-17 17:13:00,
2013-01-17 12:23:00,76.0,66.0,30.01,WSW,249,7.0,17.0,71,0.00,,,0.00,,2013-01-17 17:23:00,
2013-01-17 12:33:00,76.0,65.0,30.00,WNW,282,4.0,16.0,70,0.00,,,0.00,,2013-01-17 17:33:00,
2013-01-17 12:43:00,76.0,65.0,30.00,WNW,282,4.0,16.0,70,0.00,,,0.00,,2013-01-17 17:43:00,
2013-01-17 12:53:00,75.0,65.0,29.99,West,261,3.0,12.0,72,0.00,,,0.00,,2013-01-17 17:53:00,
2013-01-17 13:04:00,71.0,63.0,30.01,WNW,287,8.0,26.0,77,0.00,,,0.00,,2013-01-17 18:04:00,
2013-01-17 13:12:00,71.0,63.0,30.01,WNW,287,8.0,26.0,77,0.00,,,0.00,,2013-01-17 18:12:00,
2013-01-17 13:23:00,67.0,63.0,30.01,West,272,3.0,15.0,87,0.00,,,0.00,,2013-01-17 18:23:00,
2013-01-17 13:33:00,66.0,62.0,30.00,WSW,258,4.0,13.0,88,0.00,,,0.00,,2013-01-17 18:33:00,
2013-01-17 13:43:00,66.0,62.0,30.00,WSW,258,4.0,13.0,88,0.00,,,0.00,,2013-01-17 18:43:00,
2013-01-17 13:53:00,66.0,62.0,29.99,West,268,4.0,18.0,86,0.00,,,0.00,,2013-01-17 18:53:00,
2013-01-17 14:03:00,65.0,60.0,29.99,WSW,248,10.0,19.0,85,0.00,,,0.00,,2013-01-17 19:03:00,
2013-01-17 14:13:00,65.0,60.0,29.99,WSW,248,10.0,19.0,85,0.00,,,0.00,,2013-01-17 19:13:00,
2013-01-17 14:23:00,65.0,60.0,29.99,West,269,5.0,16.0,85,0.00,,,0.00,,2013-01-17 19:23:00,
2013-01-17 14:33:00,64.0,59.0,29.99,WNW,303,6.0,20.0,84,0.00,,,0.00,,2013-01-17 19:33:00,
2013-01-17 14:43:00,64.0,59.0,29.99,WNW,303,6.0,20.0,84,0.00,,,0.00,,2013-01-17 19:43:00,
2013-01-17 14:53:00,63.0,58.0,30.00,WNW,284,5.0,21.0,85,0.00,,,0.00,,2013-01-17 19:53:00,
2013-01-17 15:03:00,61.0,57.0,30.01,NNW,336,8.0,20.0,86,0.00,,,0.00,,2013-01-17 20:03:00,
2013-01-17 15:12:00,61.0,57.0,30.01,NNW,336,8.0,20.0,86,0.00,,,0.00,,2013-01-17 20:12:00,
2013-01-17 15:23:00,60.0,56.0,30.01,WNW,292,8.0,20.0,86,0.00,,,0.00,,2013-01-17 20:23:00,
2013-01-17 15:33:00,59.0,54.0,30.02,West,259,5.0,17.0,85,0.00,,,0.00,,2013-01-17 20:33:00,
2013-01-17 15:43:00,59.0,54.0,30.02,West,259,5.0,17.0,85,0.00,,,0.00,,2013-01-17 20:43:00,
2013-01-17 15:54:00,59.0,53.0,30.03,NW,306,10.0,24.0,81,0.00,,,0.00,,2013-01-17 20:54:00,
2013-01-17 16:03:00,59.0,53.0,30.03,WSW,252,7.0,25.0,81,0.00,,,0.00,,2013-01-17 21:03:00,
2013-01-17 16:13:00,59.0,53.0,30.03,WSW,252,7.0,25.0,81,0.00,,,0.00,,2013-01-17 21:13:00,
2013-01-17 16:23:00,59.0,53.0,30.03,WNW,292,3.0,15.0,81,0.00,,,0.00,,2013-01-17 21:23:00,
2013-01-17 16:34:00,59.0,52.0,30.04,WSW,253,7.0,19.0,78,0.00,,,0.00,,2013-01-17 21:34:00,
2013-01-17 16:43:00,59.0,52.0,30.04,WSW,253,7.0,19.0,78,0.00,,,0.00,,2013-01-17 21:43:00,
2013-01-17 16:53:00,59.0,52.0,30.05,WSW,248,6.0,16.0,78,0.00,,,0.00,,2013-01-17 21:53:00,
2013-01-17 17:03:00,59.0,51.0,30.05,NW,308,4.0,14.0,76,0.00,,,0.00,,2013-01-17 22:03:00,
2013-01-17 17:12:00,59.0,51.0,30.05,NW,308,4.0,14.0,76,0.00,,,0.00,,2013-01-17 22:12:00,
2013-01-17 17:23:00,58.0,50.0,30.05,WNW,289,5.0,17.0,76,0.00,,,0.00,,2013-01-17 22:23:00,
2013-01-17 17:33:00,59.0,50.0,30.05,WNW,294,6.0,21.0,73,0.00,,,0.00,,2013-01-17 22:33:00,
2013-01-17 17:43:00,59.0,50.0,30.05,WNW,294,6.0,21.0,73,0.00,,,0.00,,2013-01-17 22:43:00,
2013-01-17 17:53:00,58.0,49.0,30.05,West,267,6.0,22.0,72,0.00,,,0.00,,2013-01-17 22:53:00,
2013-01-17 18:03:00,58.0,49.0,30.06,West,272,9.0,21.0,71,0.00,,,0.00,,2013-01-17 23:03:00,
2013-01-17 18:12:00,58.0,49.0,30.06,West,272,9.0,21.0,71,0.00,,,0.00,,2013-01-17 23:12:00,
2013-01-17 18:23:00,58.0,49.0,30.06,West,271,3.0,13.0,71,0.00,,,0.00,,2013-01-17 23:23:00,
2013-01-17 18:33:00,58.0,48.0,30.06,WNW,302,6.0,20.0,69,0.00,,,0.00,,2013-01-17 23:33:00,
2013-01-17 18:43:00,58.0,48.0,30.06,WNW,302,6.0,20.0,69,0.00,,,0.00,,2013-01-17 23:43:00,
2013-01-17 18:53:00,58.0,48.0,30.07,WNW,293,2.0,13.0,69,0.00,,,0.00,,2013-01-17 23:53:00,
2013-01-17 19:03:00,57.0,47.0,30.07,West,275,7.0,14.0,68,0.00,,,0.00,,2013-01-18 00:03:00,
2013-01-17 19:12:00,57.0,47.0,30.07,West,275,7.0,14.0,68,0.00,,,0.00,,2013-01-18 00:12:00,
2013-01-17 19:23:00,57.0,47.0,30.08,WSW,254,5.0,15.0,68,0.00,,,0.00,,2013-01-18 00:23:00,
2013-01-17 19:32:00,57.0,47.0,30.08,WSW,254,5.0,15.0,68,0.00,,,0.00,,2013-01-18 00:32:00,
2013-01-17 19:42:00,56.0,46.0,30.08,West,269,2.0,13.0,70,0.00,,,0.00,,2013-01-18 00:42:00,
2013-01-17 19:53:00,56.0,46.0,30.09,WNW,290,4.0,9.0,70,0.00,,,0.00,,2013-01-18 00:53:00,
2013-01-17 20:03:00,56.0,47.0,30.09,West,274,8.0,12.0,71,0.00,,,0.00,,2013-01-18 01:03:00,
2013-01-17 20:13:00,56.0,47.0,30.09,West,274,8.0,12.0,71,0.00,,,0.00,,2013-01-18 01:13:00,
2013-01-17 20:23:00,56.0,47.0,30.09,WNW,295,2.0,14.0,71,0.00,,,0.00,,2013-01-18 01:23:00,
2013-01-17 20:33:00,55.0,46.0,30.10,WNW,285,6.0,14.0,72,0.00,,,0.00,,2013-01-18 01:33:00,
2013-01-17 20:43:00,55.0,46.0,30.10,WNW,285,6.0,14.0,72,0.00,,,0.00,,2013-01-18 01:43:00,
2013-01-17 20:53:00,55.0,47.0,30.10,WNW,290,5.0,11.0,73,0.00,,,0.00,,2013-01-18 01:53:00,
2013-01-17 21:03:00,56.0,47.0,30.11,WNW,290,5.0,13.0,72,0.00,,,0.00,,2013-01-18 02:03:00,
2013-01-17 21:12:00,56.0,47.0,30.11,WNW,290,5.0,13.0,72,0.00,,,0.00,,2013-01-18 02:12:00,
2013-01-17 21:22:00,56.0,47.0,30.11,West,278,5.0,14.0,71,0.00,,,0.00,,2013-01-18 02:22:00,
2013-01-17 21:33:00,55.0,46.0,30.11,West,265,5.0,18.0,71,0.00,,,0.00,,2013-01-18 02:33:00,
2013-01-17 21:42:00,55.0,46.0,30.11,West,265,5.0,18.0,71,0.00,,,0.00,,2013-01-18 02:42:00,
2013-01-17 21:53:00,55.0,45.0,30.11,West,278,7.0,14.0,70,0.00,,,0.00,,2013-01-18 02:53:00,
2013-01-17 22:02:00,54.0,44.0,30.11,WNW,289,2.0,20.0,70,0.00,,,0.00,,2013-01-18 03:02:00,
2013-01-17 22:12:00,54.0,44.0,30.11,WNW,289,2.0,20.0,70,0.00,,,0.00,,2013-01-18 03:12:00,
2013-01-17 22:23:00,54.0,45.0,30.11,West,275,5.0,15.0,72,0.00,,,0.00,,2013-01-18 03:23:00,
2013-01-17 22:33:00,53.0,45.0,30.11,West,277,7.0,14.0,73,0.00,,,0.00,,2013-01-18 03:33:00,
2013-01-17 22:42:00,53.0,45.0,30.11,West,277,7.0,14.0,73,0.00,,,0.00,,2013-01-18 03:42:00,
2013-01-17 22:53:00,53.0,45.0,30.11,West,281,7.0,16.0,74,0.00,,,0.00,,2013-01-18 03:53:00,
2013-01-17 23:02:00,53.0,45.0,30.11,West,270,3.0,14.0,74,0.00,,,0.00,,2013-01-18 04:02:00,
2013-01-17 23:12:00,53.0,45.0,30.11,West,270,3.0,14.0,74,0.00,,,0.00,,2013-01-18 04:12:00,
2013-01-17 23:22:00,53.0,46.0,30.12,West,277,3.0,6.0,76,0.00,,,0.00,,2013-01-18 04:22:00,
2013-01-17 23:33:00,52.0,44.0,30.13,West,276,7.0,16.0,74,0.00,,,0.00,,2013-01-18 04:33:00,
2013-01-17 23:42:00,52.0,44.0,30.13,West,276,7.0,16.0,74,0.00,,,0.00,,2013-01-18 04:42:00,
2013-01-17 23:53:00,52.0,44.0,30.13,WNW,302,3.0,12.0,73,0.00,,,0.00,,2013-01-18 04:53:00,